Time;durP1;ratioP1;P1;durP2;ratioP2;P2;SDS_P1;SDS_P2;PMS_P1;PMS_P2;Temp;Humidity;BMP_temperature;BMP_pressure;BME280_temperature;BME280_humidity;BME280_pressure;Samples;Min_cycle;Max_cycle;Signal;HPM_P1;HPM_P2
2022/03/22 00:00:31;;;;;;;13.63;9.53;;;4.40;60.70;;;;;;5040111;28;20302;-80
2022/03/22 00:02:58;;;;;;;12.10;9.40;;;4.40;60.50;;;;;;5042993;28;20234;-80
2022/03/22 00:05:26;;;;;;;12.60;10.27;;;4.40;60.40;;;;;;5048459;28;20253;-80
2022/03/22 00:07:53;;;;;;;15.10;10.57;;;4.40;60.60;;;;;;5052551;28;20257;-80
2022/03/22 00:10:20;;;;;;;13.77;10.27;;;4.30;60.90;;;;;;5049452;28;20315;-80
2022/03/22 00:12:49;;;;;;;13.50;9.90;;;4.30;61.00;;;;;;5056256;28;20231;-80
2022/03/22 00:15:17;;;;;;;12.80;10.30;;;4.30;60.80;;;;;;5053972;28;20228;-80
2022/03/22 00:17:44;;;;;;;14.07;10.23;;;4.30;61.10;;;;;;5063335;28;20238;-80
2022/03/22 00:20:12;;;;;;;14.30;9.63;;;4.30;61.10;;;;;;5054598;28;20233;-80
2022/03/22 00:22:41;;;;;;;14.07;10.20;;;4.20;61.20;;;;;;5050683;28;20645;-79
2022/03/22 00:25:09;;;;;;;13.43;9.73;;;4.20;61.80;;;;;;5051697;28;20763;-80
2022/03/22 00:30:32;;;;;;;12.63;9.53;;;4.20;62.00;;;;;;5060260;27;21125;-80
2022/03/22 00:33:00;;;;;;;15.70;10.37;;;4.20;62.00;;;;;;5047681;28;20234;-80
2022/03/22 00:35:30;;;;;;;14.43;10.37;;;4.10;61.70;;;;;;5041036;28;20226;-80
2022/03/22 00:37:58;;;;;;;12.57;9.97;;;4.10;61.90;;;;;;5045393;28;20231;-80
2022/03/22 00:40:27;;;;;;;12.53;9.33;;;4.10;61.80;;;;;;5045498;28;20261;-80
2022/03/22 00:42:54;;;;;;;14.63;9.93;;;4.10;61.60;;;;;;5042680;28;20225;-80
2022/03/22 00:45:23;;;;;;;13.47;9.33;;;4.10;62.00;;;;;;5046641;28;20277;-80
2022/03/22 00:47:53;;;;;;;13.27;10.07;;;4.10;62.20;;;;;;5050596;28;20221;-79
2022/03/22 00:50:22;;;;;;;14.80;9.90;;;4.00;61.90;;;;;;5064109;28;20313;-80
2022/03/22 00:52:48;;;;;;;15.73;10.60;;;4.00;61.80;;;;;;5064396;28;20569;-82
2022/03/22 00:55:15;;;;;;;17.00;9.87;;;4.00;61.90;;;;;;5071799;28;20226;-82
2022/03/22 00:57:43;;;;;;;15.57;10.03;;;4.00;62.80;;;;;;5063351;28;20230;-82
2022/03/22 01:00:13;;;;;;;13.73;10.60;;;4.00;61.80;;;;;;5065872;28;20245;-81
2022/03/22 01:02:42;;;;;;;14.10;9.60;;;4.00;61.60;;;;;;5063200;28;21074;-81
2022/03/22 01:05:13;;;;;;;13.43;9.30;;;3.90;61.70;;;;;;5064080;28;20233;-82
2022/03/22 01:07:41;;;;;;;13.10;10.13;;;4.00;62.40;;;;;;5068868;28;20226;-80
2022/03/22 01:10:09;;;;;;;12.33;9.90;;;3.90;62.20;;;;;;5072452;28;20811;-80
2022/03/22 01:12:38;;;;;;;11.97;9.27;;;3.90;62.30;;;;;;5061841;28;20366;-82
2022/03/22 01:15:09;;;;;;;13.00;10.57;;;3.90;62.30;;;;;;5067376;28;20234;-79
2022/03/22 01:17:36;;;;;;;13.27;9.63;;;3.90;62.20;;;;;;5061640;28;20234;-80
2022/03/22 01:20:05;;;;;;;13.37;9.33;;;3.80;62.00;;;;;;5067011;28;20234;-81
2022/03/22 01:22:33;;;;;;;14.83;9.93;;;3.80;62.20;;;;;;5064901;28;20875;-80
2022/03/22 01:25:00;;;;;;;14.13;9.97;;;3.80;62.20;;;;;;5064883;28;20222;-80
2022/03/22 01:27:27;;;;;;;13.57;9.47;;;3.80;62.20;;;;;;5062322;28;20257;-80
2022/03/22 01:29:54;;;;;;;15.13;9.87;;;3.80;62.30;;;;;;5060519;28;20660;-80
2022/03/22 01:32:21;;;;;;;15.60;9.93;;;3.80;62.20;;;;;;5059836;28;20322;-80
2022/03/22 01:34:47;;;;;;;12.13;9.27;;;3.80;62.40;;;;;;5062935;28;20234;-81
2022/03/22 01:37:14;;;;;;;13.30;9.90;;;3.70;62.50;;;;;;5057378;28;20229;-81
2022/03/22 01:39:42;;;;;;;13.40;9.77;;;3.80;62.50;;;;;;5064548;28;20236;-80
2022/03/22 01:42:09;;;;;;;13.37;9.73;;;3.70;62.50;;;;;;5052815;28;20839;-81
2022/03/22 01:44:36;;;;;;;14.00;10.10;;;3.70;62.40;;;;;;5056217;28;20252;-81
2022/03/22 01:47:04;;;;;;;12.27;9.67;;;3.70;62.50;;;;;;5054608;28;20266;-82
2022/03/22 01:49:31;;;;;;;16.27;10.23;;;3.70;62.90;;;;;;5062810;28;20297;-81
2022/03/22 01:51:58;;;;;;;15.53;10.67;;;3.70;62.90;;;;;;5055849;28;20228;-80
2022/03/22 01:54:25;;;;;;;13.00;10.27;;;3.60;62.90;;;;;;5055915;28;20544;-81
2022/03/22 01:56:53;;;;;;;13.73;9.83;;;3.70;63.00;;;;;;5056045;28;20238;-81
2022/03/22 01:59:20;;;;;;;13.03;10.10;;;3.60;62.90;;;;;;5051190;28;20227;-81
2022/03/22 02:07:16;;;;;;;14.50;10.83;;;3.60;63.20;;;;;;5049704;28;20226;-80
2022/03/22 02:09:43;;;;;;;13.57;9.87;;;3.60;63.10;;;;;;5047964;28;20242;-78
2022/03/22 02:12:11;;;;;;;12.30;9.97;;;3.60;63.30;;;;;;5048924;28;20305;-80
2022/03/22 02:14:38;;;;;;;12.60;9.90;;;3.60;63.60;;;;;;5046203;28;20317;-80
2022/03/22 02:17:08;;;;;;;14.37;9.47;;;3.50;63.50;;;;;;5047168;28;20232;-80
2022/03/22 02:19:38;;;;;;;13.33;10.43;;;3.60;63.60;;;;;;5045229;28;20264;-82
2022/03/22 02:22:08;;;;;;;12.97;10.30;;;3.60;63.60;;;;;;5048018;28;20225;-81
2022/03/22 02:24:36;;;;;;;14.87;10.03;;;3.50;63.90;;;;;;5049412;28;20280;-81
2022/03/22 02:27:03;;;;;;;13.27;9.87;;;3.60;63.90;;;;;;5038873;28;20238;-81
2022/03/22 02:29:30;;;;;;;13.17;10.17;;;3.60;63.80;;;;;;5054245;28;20719;-81
2022/03/22 02:31:58;;;;;;;12.73;9.80;;;3.50;63.70;;;;;;5047681;28;20273;-81
2022/03/22 02:34:24;;;;;;;13.40;9.70;;;3.50;63.70;;;;;;5048828;28;20234;-81
2022/03/22 02:36:51;;;;;;;13.97;10.17;;;3.50;63.60;;;;;;5054435;28;20308;-79
2022/03/22 02:39:18;;;;;;;12.83;9.93;;;3.50;63.80;;;;;;5046588;28;20711;-80
2022/03/22 02:41:50;;;;;;;13.07;9.50;;;3.50;63.90;;;;;;5048698;28;20234;-80
2022/03/22 02:44:17;;;;;;;12.03;9.90;;;3.50;64.00;;;;;;5049794;28;20218;-80
2022/03/22 02:46:44;;;;;;;14.57;9.83;;;3.50;63.80;;;;;;5047105;28;20234;-80
2022/03/22 02:49:11;;;;;;;11.40;9.40;;;3.40;63.80;;;;;;5046782;28;20220;-80
2022/03/22 02:51:37;;;;;;;14.27;10.03;;;3.40;63.80;;;;;;5047512;28;20583;-80
2022/03/22 02:54:04;;;;;;;15.40;9.90;;;3.40;64.60;;;;;;5045242;28;20726;-80
2022/03/22 02:56:31;;;;;;;15.20;10.27;;;3.40;63.80;;;;;;5049474;28;20226;-81
2022/03/22 02:58:59;;;;;;;14.60;9.83;;;3.40;63.60;;;;;;5047743;28;20245;-80
2022/03/22 03:01:25;;;;;;;13.17;10.00;;;3.40;63.80;;;;;;5047811;28;20232;-80
2022/03/22 03:03:52;;;;;;;14.80;10.03;;;3.40;63.80;;;;;;5048180;28;20763;-80
2022/03/22 03:06:19;;;;;;;13.30;10.33;;;3.40;64.10;;;;;;5046681;28;20235;-79
2022/03/22 03:08:46;;;;;;;13.90;10.00;;;3.30;64.50;;;;;;5044300;28;20223;-79
2022/03/22 03:11:13;;;;;;;13.63;9.60;;;3.30;64.60;;;;;;5047892;28;20820;-79
2022/03/22 03:16:25;;;;;;;15.67;10.00;;;3.30;64.70;;;;;;5048641;28;20245;-79
2022/03/22 03:18:52;;;;;;;13.33;9.87;;;3.30;64.50;;;;;;5046460;28;20273;-79
2022/03/22 03:21:18;;;;;;;14.70;10.23;;;3.30;64.30;;;;;;5044660;28;20276;-79
2022/03/22 03:23:45;;;;;;;14.80;10.03;;;3.30;64.40;;;;;;5046692;28;20233;-79
2022/03/22 03:26:12;;;;;;;15.63;10.30;;;3.30;64.60;;;;;;5050296;28;20233;-79
2022/03/22 03:28:38;;;;;;;13.23;9.83;;;3.20;64.70;;;;;;5048680;28;20252;-81
2022/03/22 03:31:05;;;;;;;17.00;10.23;;;3.20;64.50;;;;;;5048018;28;20318;-80
2022/03/22 03:33:33;;;;;;;13.63;9.73;;;3.20;64.60;;;;;;5051473;28;20233;-80
2022/03/22 03:36:02;;;;;;;17.93;10.03;;;3.20;64.80;;;;;;5051482;28;20237;-79
2022/03/22 03:38:28;;;;;;;14.37;10.10;;;3.20;64.80;;;;;;5049022;28;20253;-80
2022/03/22 03:43:39;;;;;;;13.33;9.47;;;3.20;64.90;;;;;;5045505;28;20269;-80
2022/03/22 03:48:52;;;;;;;12.77;10.20;;;3.20;64.70;;;;;;5049551;28;20236;-80
2022/03/22 03:51:19;;;;;;;14.17;9.80;;;3.10;64.90;;;;;;5053169;28;20254;-81
2022/03/22 03:53:46;;;;;;;13.50;9.60;;;3.10;65.20;;;;;;5052354;28;20243;-81
2022/03/22 03:56:12;;;;;;;13.77;9.40;;;3.10;65.30;;;;;;5057856;28;20231;-80
2022/03/22 03:58:39;;;;;;;15.50;9.97;;;3.10;65.20;;;;;;5058413;28;20264;-79
2022/03/22 04:01:06;;;;;;;14.17;10.47;;;3.10;65.40;;;;;;5049700;28;20253;-80
2022/03/22 04:03:33;;;;;;;14.07;10.40;;;3.00;65.50;;;;;;5054828;28;20258;-79
2022/03/22 04:06:01;;;;;;;13.20;10.17;;;3.00;65.40;;;;;;5052169;28;20262;-79
2022/03/22 04:08:28;;;;;;;15.47;10.40;;;3.00;66.30;;;;;;5051808;28;20229;-80
2022/03/22 04:10:54;;;;;;;13.73;9.80;;;3.00;65.40;;;;;;5046963;28;20736;-79
2022/03/22 04:13:21;;;;;;;15.90;10.83;;;3.00;65.40;;;;;;5050070;28;20325;-79
2022/03/22 04:15:48;;;;;;;14.03;10.10;;;3.00;65.60;;;;;;5051232;28;20224;-79
2022/03/22 04:18:15;;;;;;;13.47;9.83;;;2.90;65.80;;;;;;5047603;28;20230;-79
2022/03/22 04:20:42;;;;;;;14.70;10.37;;;2.90;65.80;;;;;;5049360;28;20225;-79
2022/03/22 04:23:09;;;;;;;13.20;10.00;;;2.90;65.50;;;;;;5049341;28;20221;-79
2022/03/22 04:25:36;;;;;;;15.17;10.23;;;2.90;65.80;;;;;;5049835;28;20241;-79
2022/03/22 04:33:33;;;;;;;14.10;10.33;;;2.80;65.70;;;;;;5044460;28;20750;-79
2022/03/22 04:36:00;;;;;;;14.00;10.27;;;2.80;65.80;;;;;;5048500;28;20779;-79
2022/03/22 04:38:29;;;;;;;13.73;9.97;;;2.80;65.80;;;;;;5048684;28;20241;-80
2022/03/22 04:40:57;;;;;;;14.03;10.50;;;2.70;65.80;;;;;;5047891;28;20234;-79
2022/03/22 04:43:25;;;;;;;21.40;10.03;;;2.70;65.80;;;;;;5045553;28;20230;-79
2022/03/22 04:45:51;;;;;;;20.90;10.20;;;2.70;66.00;;;;;;5050148;28;20219;-81
2022/03/22 04:48:18;;;;;;;12.57;9.73;;;2.60;65.70;;;;;;5046447;28;21907;-80
2022/03/22 04:50:45;;;;;;;14.17;10.23;;;2.60;65.70;;;;;;5049431;28;20240;-81
2022/03/22 04:58:42;;;;;;;14.10;10.20;;;2.60;66.40;;;;;;5047780;28;20270;-80
2022/03/22 05:01:09;;;;;;;15.60;10.47;;;2.60;66.40;;;;;;5050936;28;20249;-80
2022/03/22 05:03:35;;;;;;;16.57;10.63;;;2.60;66.40;;;;;;5047814;28;20627;-81
2022/03/22 05:08:49;;;;;;;19.00;10.60;;;2.60;66.60;;;;;;5048093;28;20230;-79
2022/03/22 05:11:17;;;;;;;14.63;10.37;;;2.50;66.10;;;;;;5047034;28;20233;-80
2022/03/22 05:13:43;;;;;;;13.47;10.10;;;2.50;66.40;;;;;;5048267;28;20236;-81
2022/03/22 05:16:10;;;;;;;17.03;10.50;;;2.50;66.60;;;;;;5044707;28;20231;-80
2022/03/22 05:18:37;;;;;;;15.77;10.80;;;2.50;66.90;;;;;;5053115;28;20237;-80
2022/03/22 05:21:04;;;;;;;14.20;10.50;;;2.50;66.70;;;;;;5050744;28;20282;-79
2022/03/22 05:23:31;;;;;;;14.87;10.43;;;2.50;67.60;;;;;;5053539;28;20370;-79
2022/03/22 05:25:57;;;;;;;15.17;10.87;;;2.50;67.00;;;;;;5053727;28;20229;-79
2022/03/22 05:28:25;;;;;;;15.83;10.60;;;2.50;67.20;;;;;;5049940;28;20312;-79
2022/03/22 05:30:52;;;;;;;14.37;10.93;;;2.50;67.30;;;;;;5053317;28;20236;-79
2022/03/22 05:33:19;;;;;;;14.10;10.83;;;2.50;67.10;;;;;;5048367;28;20846;-79
2022/03/22 05:35:46;;;;;;;15.27;11.50;;;2.50;67.20;;;;;;5052259;28;20230;-79
2022/03/22 05:38:12;;;;;;;17.00;11.13;;;2.50;67.40;;;;;;5054137;28;20224;-80
2022/03/22 05:40:39;;;;;;;15.07;11.07;;;2.50;67.30;;;;;;5045298;28;20224;-79
2022/03/22 05:43:06;;;;;;;15.53;11.07;;;2.50;67.30;;;;;;5045973;28;20899;-79
2022/03/22 05:45:37;;;;;;;14.87;10.37;;;2.50;67.60;;;;;;5051987;28;20232;-78
2022/03/22 05:48:07;;;;;;;15.87;11.03;;;2.60;68.00;;;;;;5046230;28;20234;-79
2022/03/22 05:50:34;;;;;;;13.50;10.20;;;2.60;67.90;;;;;;5047556;28;20257;-79
2022/03/22 05:53:01;;;;;;;14.53;10.53;;;2.60;68.10;;;;;;5051940;28;20219;-79
2022/03/22 05:55:28;;;;;;;15.40;10.93;;;2.60;68.00;;;;;;5047808;28;20304;-78
2022/03/22 05:57:54;;;;;;;16.23;10.80;;;2.70;68.00;;;;;;5048422;28;20318;-78
2022/03/22 06:00:22;;;;;;;14.50;11.30;;;2.70;68.20;;;;;;5050838;28;20229;-78
2022/03/22 06:02:50;;;;;;;15.53;10.70;;;2.80;68.20;;;;;;5043889;28;20665;-80
2022/03/22 06:05:17;;;;;;;15.67;10.83;;;2.80;68.30;;;;;;5048556;28;20252;-81
2022/03/22 06:07:44;;;;;;;14.73;10.60;;;2.90;68.00;;;;;;5050786;28;20230;-79
2022/03/22 06:10:13;;;;;;;14.73;10.10;;;2.90;67.90;;;;;;5049842;28;20355;-79
2022/03/22 06:12:41;;;;;;;13.63;10.00;;;3.00;68.00;;;;;;5046070;28;20225;-80
2022/03/22 06:15:16;;;;;;;16.83;10.87;;;3.10;67.80;;;;;;5056551;28;20217;-79
2022/03/22 06:17:45;;;;;;;15.83;11.53;;;3.20;68.00;;;;;;5049124;28;20320;-80
2022/03/22 06:20:14;;;;;;;15.53;10.57;;;3.30;67.90;;;;;;5049762;28;20223;-80
2022/03/22 06:22:41;;;;;;;14.40;10.83;;;3.40;67.90;;;;;;5052552;28;20237;-81
2022/03/22 06:25:09;;;;;;;13.53;9.77;;;3.50;67.80;;;;;;5053718;28;20214;-80
2022/03/22 06:27:36;;;;;;;13.93;10.70;;;3.70;67.90;;;;;;5048683;28;20231;-80
2022/03/22 06:30:04;;;;;;;13.07;10.00;;;3.80;67.90;;;;;;5051240;28;20230;-80
2022/03/22 06:32:31;;;;;;;13.80;10.67;;;4.00;67.90;;;;;;5045282;28;20230;-80
2022/03/22 06:34:57;;;;;;;16.40;10.47;;;4.20;67.70;;;;;;5047218;28;20293;-80
2022/03/22 06:37:25;;;;;;;15.43;10.53;;;4.30;67.30;;;;;;5044507;28;20847;-80
2022/03/22 06:39:52;;;;;;;14.40;10.67;;;4.50;67.30;;;;;;5049070;28;20231;-80
2022/03/22 06:42:20;;;;;;;13.90;10.60;;;4.70;67.10;;;;;;5050402;28;20234;-80
2022/03/22 06:44:47;;;;;;;16.47;11.80;;;4.90;66.90;;;;;;5046306;28;20294;-80
2022/03/22 06:47:14;;;;;;;14.90;11.10;;;5.00;66.20;;;;;;5045654;28;20223;-80
2022/03/22 06:49:41;;;;;;;16.73;11.60;;;5.20;66.40;;;;;;5045530;28;20242;-80
2022/03/22 06:52:07;;;;;;;13.23;10.57;;;5.40;66.30;;;;;;5045871;28;20249;-80
2022/03/22 06:54:35;;;;;;;15.07;11.10;;;5.50;66.40;;;;;;5049386;28;20871;-80
2022/03/22 06:57:02;;;;;;;15.90;11.00;;;5.60;66.50;;;;;;5048135;28;20309;-80
2022/03/22 06:59:29;;;;;;;15.03;10.93;;;5.80;66.30;;;;;;5048590;28;20250;-80
2022/03/22 07:01:56;;;;;;;16.70;11.23;;;6.00;66.10;;;;;;5049321;28;20270;-80
2022/03/22 07:04:23;;;;;;;15.50;11.67;;;6.10;65.50;;;;;;5048812;28;20228;-80
2022/03/22 07:06:49;;;;;;;16.23;11.70;;;6.20;65.10;;;;;;5043618;28;20274;-80
2022/03/22 07:09:16;;;;;;;15.90;11.60;;;6.30;64.60;;;;;;5048138;28;20226;-80
2022/03/22 07:11:55;;;;;;;13.90;11.00;;;6.40;64.40;;;;;;5049119;28;20227;-80
2022/03/22 07:14:24;;;;;;;16.37;11.03;;;6.50;64.40;;;;;;5043609;28;20227;-80
2022/03/22 07:16:51;;;;;;;15.00;11.07;;;6.60;64.10;;;;;;5045605;28;20742;-80
2022/03/22 07:19:18;;;;;;;15.23;11.13;;;6.70;64.30;;;;;;5049093;28;20228;-80
2022/03/22 07:21:46;;;;;;;17.47;11.97;;;6.70;64.60;;;;;;5045224;28;20244;-80
2022/03/22 07:24:15;;;;;;;15.37;11.10;;;6.80;64.10;;;;;;5044968;28;20236;-80
2022/03/22 07:26:42;;;;;;;23.33;14.87;;;6.90;63.50;;;;;;5043867;28;20548;-81
2022/03/22 07:29:10;;;;;;;18.70;12.27;;;7.00;63.80;;;;;;5046731;28;20686;-80
2022/03/22 07:31:38;;;;;;;15.60;11.63;;;7.10;63.50;;;;;;5049927;28;20235;-80
2022/03/22 07:34:06;;;;;;;15.73;11.70;;;7.30;63.30;;;;;;5044920;28;20230;-80
2022/03/22 07:36:32;;;;;;;15.47;12.67;;;7.40;62.50;;;;;;5046923;28;20322;-80
2022/03/22 07:39:00;;;;;;;16.07;12.13;;;7.60;62.90;;;;;;5047818;28;20229;-80
2022/03/22 07:41:27;;;;;;;16.13;12.27;;;7.70;63.00;;;;;;5048079;28;20313;-80
2022/03/22 07:43:55;;;;;;;16.00;12.30;;;7.90;62.80;;;;;;5045424;28;20231;-80
2022/03/22 07:46:23;;;;;;;17.63;12.47;;;8.20;62.30;;;;;;5051521;28;20233;-81
2022/03/22 07:48:50;;;;;;;14.33;11.40;;;8.40;61.40;;;;;;5043518;28;21047;-80
2022/03/22 07:54:02;;;;;;;16.37;12.10;;;8.80;60.30;;;;;;5044862;28;20234;-81
2022/03/22 07:56:30;;;;;;;16.20;12.07;;;9.10;60.20;;;;;;5049530;28;20670;-80
2022/03/22 07:58:57;;;;;;;15.00;11.93;;;9.50;60.40;;;;;;5049167;28;20363;-80
2022/03/22 08:01:26;;;;;;;18.53;12.87;;;9.80;59.30;;;;;;5049232;28;20962;-80
2022/03/22 08:03:53;;;;;;;15.07;12.23;;;10.20;59.40;;;;;;5048268;28;20221;-81
2022/03/22 08:06:20;;;;;;;18.63;13.27;;;10.50;59.00;;;;;;5046350;28;20244;-81
2022/03/22 08:08:46;;;;;;;18.20;12.87;;;10.80;58.20;;;;;;5047725;28;20239;-80
2022/03/22 08:11:13;;;;;;;15.97;12.47;;;11.10;56.70;;;;;;5048419;28;20218;-80
2022/03/22 08:13:40;;;;;;;17.10;12.50;;;11.20;56.10;;;;;;5046889;28;20226;-81
2022/03/22 08:16:07;;;;;;;19.30;12.23;;;11.40;56.90;;;;;;5051392;28;20224;-84
2022/03/22 08:18:35;;;;;;;15.50;11.67;;;11.50;57.00;;;;;;5051997;28;20908;-83
2022/03/22 08:21:01;;;;;;;16.73;12.30;;;11.70;55.30;;;;;;5050078;28;20227;-83
2022/03/22 08:23:28;;;;;;;17.00;12.43;;;11.80;55.30;;;;;;5050051;28;20238;-83
2022/03/22 08:25:55;;;;;;;16.93;12.83;;;11.90;55.10;;;;;;5047573;28;20231;-84
2022/03/22 08:28:22;;;;;;;15.10;12.17;;;12.00;55.30;;;;;;5047008;28;20247;-83
2022/03/22 08:30:49;;;;;;;16.20;12.70;;;12.20;55.70;;;;;;5048114;28;20236;-84
2022/03/22 08:33:17;;;;;;;14.43;12.53;;;12.30;54.90;;;;;;5049292;28;20263;-83
2022/03/22 08:35:46;;;;;;;16.50;12.40;;;12.50;53.50;;;;;;5052323;28;20573;-84
2022/03/22 08:38:13;;;;;;;18.47;13.00;;;12.70;54.70;;;;;;5054689;28;20389;-84
2022/03/22 08:40:41;;;;;;;15.03;12.07;;;13.00;54.50;;;;;;5048169;28;20235;-83
2022/03/22 08:43:08;;;;;;;17.77;13.03;;;13.30;54.70;;;;;;5048250;28;20230;-84
2022/03/22 08:45:36;;;;;;;16.17;12.83;;;13.70;54.40;;;;;;5056156;28;20244;-84
2022/03/22 08:48:09;;;;;;;17.60;13.37;;;14.00;51.80;;;;;;5049778;28;20467;-84
2022/03/22 08:50:36;;;;;;;17.00;13.13;;;14.40;51.60;;;;;;5044277;28;20238;-84
2022/03/22 08:53:05;;;;;;;14.53;12.50;;;14.60;50.80;;;;;;5049133;28;20249;-84
2022/03/22 08:55:32;;;;;;;14.67;12.20;;;14.80;51.40;;;;;;5054500;28;20375;-84
2022/03/22 08:58:04;;;;;;;15.93;12.10;;;15.00;52.20;;;;;;5050843;28;20237;-84
2022/03/22 09:00:32;;;;;;;18.83;12.60;;;15.30;50.60;;;;;;5050497;28;20230;-84
2022/03/22 09:02:59;;;;;;;18.13;12.43;;;15.60;49.40;;;;;;5045936;28;20772;-84
2022/03/22 09:08:11;;;;;;;17.13;11.83;;;16.10;49.80;;;;;;5053836;28;20219;-84
2022/03/22 09:10:38;;;;;;;14.60;12.17;;;16.40;47.60;;;;;;5060732;28;20289;-83
2022/03/22 09:13:06;;;;;;;16.20;12.80;;;16.60;48.50;;;;;;5050784;28;20238;-82
2022/03/22 09:15:36;;;;;;;19.20;13.10;;;16.80;48.80;;;;;;5056721;28;20248;-83
2022/03/22 09:18:04;;;;;;;16.70;13.13;;;17.00;49.20;;;;;;5053679;28;20227;-83
2022/03/22 09:20:32;;;;;;;17.40;12.20;;;17.20;48.50;;;;;;5053532;28;20239;-82
2022/03/22 09:23:01;;;;;;;13.05;11.75;;;17.50;49.60;;;;;;5052272;28;20315;-83
2022/03/22 09:25:30;;;;;;;15.20;11.90;;;17.90;49.80;;;;;;5053969;28;20770;-83
2022/03/22 09:28:00;;;;;;;13.27;11.73;;;18.30;48.90;;;;;;5048233;28;20247;-83
2022/03/22 09:30:27;;;;;;;17.75;13.73;;;18.70;49.20;;;;;;5052938;28;20228;-83
2022/03/22 09:32:56;;;;;;;16.48;12.25;;;19.10;48.70;;;;;;5054122;28;20224;-83
2022/03/22 09:35:23;;;;;;;13.95;12.10;;;19.60;47.90;;;;;;5054155;28;20220;-83
2022/03/22 09:37:50;;;;;;;14.55;12.27;;;20.00;47.30;;;;;;5052019;28;20228;-83
2022/03/22 09:40:19;;;;;;;14.15;12.48;;;20.40;47.00;;;;;;5051105;28;20220;-83
2022/03/22 09:42:48;;;;;;;14.82;12.65;;;20.70;46.30;;;;;;5055854;28;20728;-83
2022/03/22 09:45:17;;;;;;;17.05;12.75;;;21.00;45.60;;;;;;5052001;28;20242;-83
2022/03/22 09:47:45;;;;;;;14.30;12.55;;;21.30;45.30;;;;;;5053096;28;20238;-83
2022/03/22 09:50:14;;;;;;;14.90;12.38;;;21.50;45.10;;;;;;5054660;28;20227;-83
2022/03/22 09:52:41;;;;;;;13.68;12.13;;;21.60;43.50;;;;;;5055129;28;20228;-83
2022/03/22 09:55:10;;;;;;;13.55;12.02;;;21.70;44.00;;;;;;5054922;28;20605;-83
2022/03/22 09:57:38;;;;;;;16.23;12.48;;;21.80;44.30;;;;;;5050243;28;20282;-84
2022/03/22 10:00:08;;;;;;;13.55;12.18;;;22.00;44.20;;;;;;5048714;28;20285;-82
2022/03/22 10:02:40;;;;;;;14.55;12.43;;;22.10;43.80;;;;;;5043445;28;20729;-81
2022/03/22 10:05:20;;;;;;;14.77;12.48;;;22.30;42.90;;;;;;5051397;28;20232;-84
2022/03/22 10:07:56;;;;;;;14.35;12.63;;;22.40;43.00;;;;;;5041633;28;20238;-84
2022/03/22 10:10:22;;;;;;;14.10;11.82;;;22.40;41.80;;;;;;5048175;28;20896;-85
2022/03/22 10:12:56;;;;;;;15.40;13.45;;;22.50;43.10;;;;;;5045115;28;20815;-84
2022/03/22 10:15:30;;;;;;;14.43;12.63;;;22.60;42.20;;;;;;5053925;28;20235;-84
2022/03/22 10:18:04;;;;;;;15.88;12.45;;;22.80;42.20;;;;;;5043711;28;20231;-84
2022/03/22 10:20:32;;;;;;;13.93;12.55;;;22.90;41.80;;;;;;5048765;28;20319;-84
2022/03/22 10:22:59;;;;;;;14.13;12.13;;;23.10;42.10;;;;;;5040325;28;20349;-84
2022/03/22 10:25:27;;;;;;;14.30;12.40;;;23.20;42.10;;;;;;5047913;28;20300;-84
2022/03/22 10:27:55;;;;;;;14.80;13.13;;;23.40;42.00;;;;;;5046563;28;20228;-85
2022/03/22 10:30:24;;;;;;;15.65;12.32;;;23.50;41.80;;;;;;5050361;28;20246;-84
2022/03/22 10:32:51;;;;;;;14.23;12.07;;;23.60;41.70;;;;;;5049110;28;20232;-85
2022/03/22 10:35:21;;;;;;;12.90;11.55;;;23.70;40.90;;;;;;5046749;28;20267;-84
2022/03/22 10:37:50;;;;;;;13.38;11.27;;;23.90;39.40;;;;;;5048466;28;20305;-84
2022/03/22 10:40:22;;;;;;;13.57;11.60;;;24.00;39.30;;;;;;5048838;28;20631;-84
2022/03/22 10:42:50;;;;;;;14.13;11.60;;;24.00;37.60;;;;;;5047463;28;20227;-84
2022/03/22 10:45:17;;;;;;;13.07;11.68;;;24.00;36.50;;;;;;5042936;28;20232;-84
2022/03/22 10:47:46;;;;;;;14.15;11.80;;;23.80;37.30;;;;;;5051868;28;20755;-84
2022/03/22 10:50:13;;;;;;;13.43;11.38;;;23.60;37.50;;;;;;5054276;28;20224;-84
2022/03/22 10:52:50;;;;;;;16.15;11.75;;;23.50;37.60;;;;;;5052387;28;20268;-84
2022/03/22 10:55:20;;;;;;;15.18;12.63;;;23.40;37.90;;;;;;5046759;28;20224;-85
2022/03/22 10:57:49;;;;;;;14.35;12.25;;;23.40;38.30;;;;;;5051348;28;20245;-84
2022/03/22 11:00:17;;;;;;;12.90;11.60;;;23.30;37.90;;;;;;5046430;28;20226;-84
2022/03/22 11:02:51;;;;;;;15.63;12.23;;;23.30;36.90;;;;;;5051106;28;20242;-84
2022/03/22 11:05:20;;;;;;;12.48;11.18;;;23.20;36.10;;;;;;5051745;28;20234;-84
2022/03/22 11:07:48;;;;;;;15.68;11.20;;;23.10;37.00;;;;;;5045986;28;20240;-84
2022/03/22 11:10:17;;;;;;;13.52;11.27;;;23.00;36.50;;;;;;5040455;28;20222;-83
2022/03/22 11:12:44;;;;;;;12.57;11.13;;;22.90;37.10;;;;;;5044995;28;20342;-84
2022/03/22 11:15:13;;;;;;;12.30;10.98;;;22.90;36.60;;;;;;5046883;28;20509;-85
2022/03/22 11:17:41;;;;;;;14.98;11.63;;;22.80;37.20;;;;;;5045867;28;20230;-85
2022/03/22 11:20:13;;;;;;;14.43;12.23;;;22.80;37.30;;;;;;5046324;28;20680;-84
2022/03/22 11:22:51;;;;;;;12.50;11.20;;;22.80;37.00;;;;;;5047138;28;20755;-84
2022/03/22 11:25:24;;;;;;;13.50;11.85;;;23.00;37.00;;;;;;5035253;28;20759;-85
2022/03/22 11:27:57;;;;;;;13.20;11.43;;;23.10;37.20;;;;;;5046364;28;20228;-84
2022/03/22 11:30:25;;;;;;;14.55;11.55;;;23.30;37.30;;;;;;5050456;28;20247;-85
2022/03/22 11:35:47;;;;;;;14.82;11.23;;;23.60;36.60;;;;;;5049854;28;20270;-84
2022/03/22 11:38:38;;;;;;;12.98;11.68;;;23.70;36.10;;;;;;5050238;28;20239;-85
2022/03/22 11:43:49;;;;;;;12.48;11.07;;;23.90;37.10;;;;;;5044308;28;20238;-85
2022/03/22 11:46:16;;;;;;;13.65;11.45;;;24.10;36.60;;;;;;5047588;28;20228;-85
2022/03/22 11:48:43;;;;;;;12.63;11.40;;;24.20;36.50;;;;;;5045155;28;20305;-85
2022/03/22 11:51:11;;;;;;;15.00;11.32;;;24.30;36.80;;;;;;5041619;28;20680;-85
2022/03/22 11:53:45;;;;;;;13.93;11.50;;;24.30;35.70;;;;;;5044776;28;20227;-85
2022/03/22 11:56:12;;;;;;;13.18;10.70;;;24.30;35.70;;;;;;5044306;28;20683;-85
2022/03/22 11:58:49;;;;;;;12.40;11.07;;;24.40;35.80;;;;;;5050085;28;20227;-84
2022/03/22 12:01:17;;;;;;;11.82;10.63;;;24.40;35.10;;;;;;5046079;28;20249;-85
2022/03/22 12:03:50;;;;;;;13.23;10.98;;;24.40;35.10;;;;;;5050532;28;20247;-85
2022/03/22 12:06:19;;;;;;;13.02;10.60;;;24.40;35.00;;;;;;5044885;28;20227;-85
2022/03/22 12:08:46;;;;;;;13.45;11.30;;;24.40;35.40;;;;;;5050405;28;20233;-85
2022/03/22 12:11:15;;;;;;;12.00;10.77;;;24.40;35.10;;;;;;5047032;28;20230;-85
2022/03/22 12:13:45;;;;;;;11.20;10.00;;;24.50;35.70;;;;;;5046528;28;20240;-84
2022/03/22 12:16:12;;;;;;;13.75;9.35;;;24.60;32.90;;;;;;5045811;28;20231;-84
2022/03/22 12:18:42;;;;;;;12.55;10.55;;;24.60;33.10;;;;;;5045278;28;20314;-84
2022/03/22 12:21:19;;;;;;;11.68;10.40;;;24.60;33.80;;;;;;5044516;28;20216;-84
2022/03/22 12:23:46;;;;;;;11.15;9.90;;;24.60;33.20;;;;;;5044137;28;20228;-84
2022/03/22 12:26:13;;;;;;;11.20;9.98;;;24.60;33.60;;;;;;5048919;28;20234;-85
2022/03/22 12:28:47;;;;;;;10.35;9.25;;;24.60;34.10;;;;;;5047880;28;20228;-85
2022/03/22 12:31:13;;;;;;;14.15;10.63;;;24.60;32.70;;;;;;5045882;28;20274;-85
2022/03/22 12:33:40;;;;;;;10.82;9.27;;;24.50;32.70;;;;;;5044316;28;20701;-84
2022/03/22 12:36:07;;;;;;;10.23;9.18;;;24.40;32.80;;;;;;5045790;28;20736;-85
2022/03/22 12:38:35;;;;;;;9.55;8.55;;;24.40;32.90;;;;;;5043627;28;20224;-85
2022/03/22 12:41:02;;;;;;;9.85;8.82;;;24.30;32.40;;;;;;5047337;28;20774;-84
2022/03/22 12:43:29;;;;;;;9.70;8.68;;;24.20;32.20;;;;;;5053204;28;20231;-85
2022/03/22 12:45:58;;;;;;;11.05;9.35;;;24.20;32.30;;;;;;5045338;28;20314;-85
2022/03/22 12:48:24;;;;;;;10.43;9.25;;;24.20;32.30;;;;;;5043321;28;22579;-80
2022/03/22 12:50:52;;;;;;;11.30;10.20;;;24.20;30.80;;;;;;5045297;28;20234;-84
2022/03/22 12:53:19;;;;;;;10.40;9.13;;;24.20;31.60;;;;;;5044048;28;20282;-84
2022/03/22 12:55:47;;;;;;;10.25;8.93;;;24.10;31.70;;;;;;5046160;28;20758;-85
2022/03/22 12:58:14;;;;;;;10.43;8.95;;;23.90;30.50;;;;;;5040113;28;20224;-84
2022/03/22 13:00:42;;;;;;;9.65;8.60;;;23.70;31.20;;;;;;5046754;28;20227;-85
2022/03/22 13:03:10;;;;;;;9.80;8.52;;;23.50;31.30;;;;;;5047317;28;20246;-80
2022/03/22 13:05:41;;;;;;;10.95;8.90;;;23.40;30.90;;;;;;5049575;28;20232;-81
2022/03/22 13:08:13;;;;;;;9.38;7.75;;;23.20;31.10;;;;;;5048097;28;20231;-80
2022/03/22 13:15:01;;;;;;;9.75;7.78;;;23.10;31.00;;;;;;5050073;28;20755;-80
2022/03/22 13:16:20;;;;;;;11.45;8.65;;;23.00;31.40;;;;;;5065572;28;20894;-80
2022/03/22 13:18:49;;;;;;;10.55;8.57;;;23.00;31.10;;;;;;5048669;28;20242;-81
2022/03/22 13:21:21;;;;;;;10.02;8.27;;;23.10;31.50;;;;;;5047039;28;20223;-80
2022/03/22 13:23:58;;;;;;;9.48;8.45;;;23.10;31.50;;;;;;5049037;28;20236;-80